createdAt,value
2022-08-14T00:00:16.072Z,7.28
2022-08-14T00:02:45.909Z,3.67
2022-08-14T00:05:18.390Z,4.47
2022-08-14T00:10:50.055Z,9.13
2022-08-14T00:13:12.794Z,7.35
2022-08-14T00:15:48.141Z,10.93
2022-08-14T00:18:30.639Z,2.72
2022-08-14T00:21:11.675Z,9.15
2022-08-14T00:23:41.512Z,5.35
2022-08-14T00:26:23.054Z,5.30
2022-08-14T00:28:53.948Z,10.23
2022-08-14T00:31:34.969Z,9.60
2022-08-14T00:34:35.375Z,8.32
2022-08-14T00:37:00.228Z,16.38
2022-08-14T00:39:30.432Z,7.35
2022-08-14T00:41:59.439Z,9.50
2022-08-14T00:44:32.510Z,3.78
2022-08-14T00:49:43.427Z,3.78
2022-08-14T00:52:18.258Z,5.10
2022-08-14T00:54:57.907Z,12.75
2022-08-14T00:57:33.321Z,14.85
2022-08-14T01:00:08.066Z,11.63
2022-08-14T01:02:56.736Z,9.77
2022-08-14T01:05:27.893Z,11.93
2022-08-14T01:08:20.573Z,6.57
2022-08-14T01:11:01.461Z,4.82
2022-08-14T01:13:42.846Z,13.68
2022-08-14T01:16:22.457Z,4.63
2022-08-14T01:19:34.886Z,5.25
2022-08-14T01:22:04.359Z,6.70
2022-08-14T01:24:34.574Z,9.43
2022-08-14T01:27:07.065Z,8.23
2022-08-14T01:30:01.134Z,6.50
2022-08-14T01:32:27.516Z,11.57
2022-08-14T01:35:19.978Z,8.32
2022-08-14T01:37:54.834Z,13.35
2022-08-14T01:40:36.389Z,10.43
2022-08-14T01:43:22.090Z,14.10
2022-08-14T01:45:57.868Z,11.93
2022-08-14T01:48:37.015Z,3.88
2022-08-14T01:51:19.063Z,9.48
2022-08-14T01:53:55.330Z,7.03
2022-08-14T01:56:45.655Z,10.82
2022-08-14T01:59:23.361Z,8.45
2022-08-14T02:01:59.425Z,7.78
2022-08-14T02:04:55.996Z,6.25
2022-08-14T02:07:34.291Z,11.63
2022-08-14T02:10:15.582Z,7.63
2022-08-14T02:12:48.925Z,7.70
2022-08-14T02:15:23.329Z,9.05
2022-08-14T02:17:52.359Z,7.03
2022-08-14T02:20:23.872Z,6.35
2022-08-14T02:22:55.309Z,8.45
2022-08-14T02:25:24.774Z,7.68
2022-08-14T02:28:23.806Z,8.45
2022-08-14T02:30:47.511Z,73.75
2022-08-14T02:33:16.284Z,29.10
2022-08-14T02:35:53.054Z,23.05
2022-08-14T02:38:30.153Z,37.95
2022-08-14T02:41:02.988Z,15.57
2022-08-14T02:43:48.161Z,26.75
2022-08-14T02:46:20.347Z,11.60
2022-08-14T02:49:02.842Z,18.00
2022-08-14T02:51:37.046Z,19.77
2022-08-14T02:54:09.059Z,16.92
2022-08-14T02:57:15.562Z,7.50
2022-08-14T02:59:33.674Z,15.95
2022-08-14T03:02:04.490Z,9.60
2022-08-14T03:04:34.520Z,19.17
2022-08-14T03:07:07.408Z,10.60
2022-08-14T03:10:24.230Z,10.88
2022-08-14T03:12:32.416Z,6.45
2022-08-14T03:15:14.119Z,10.10
2022-08-14T03:17:57.008Z,11.43
2022-08-14T03:20:29.681Z,27.92
2022-08-14T03:23:02.921Z,10.17
2022-08-14T03:25:37.336Z,9.43
2022-08-14T03:28:14.647Z,14.88
2022-08-14T03:31:01.550Z,28.10
2022-08-14T03:33:38.429Z,5.45
2022-08-14T03:37:38.433Z,7.05
2022-08-14T03:39:12.538Z,8.48
2022-08-14T03:41:59.994Z,10.77
2022-08-14T03:45:27.139Z,6.93
2022-08-14T03:47:19.647Z,7.03
2022-08-14T03:49:49.721Z,6.70
2022-08-14T03:52:40.621Z,6.47
2022-08-14T03:55:12.218Z,5.80
2022-08-14T03:57:43.902Z,6.65
2022-08-14T04:03:07.204Z,17.85
2022-08-14T04:05:43.454Z,14.02
2022-08-14T04:08:29.710Z,8.95
2022-08-14T04:11:07.781Z,11.20
2022-08-14T04:13:42.690Z,8.40
2022-08-14T04:16:14.129Z,6.95
2022-08-14T04:18:44.805Z,6.03
2022-08-14T04:21:18.750Z,6.70
2022-08-14T04:23:57.388Z,3.08
2022-08-14T04:26:41.912Z,5.22
2022-08-14T04:29:15.078Z,4.28
2022-08-14T04:33:02.021Z,2.55
2022-08-14T04:34:35.229Z,10.80
2022-08-14T04:37:24.733Z,12.07
2022-08-14T04:40:15.048Z,9.20
2022-08-14T04:43:01.950Z,7.85
2022-08-14T04:45:42.914Z,9.95
2022-08-14T04:48:36.707Z,8.93
2022-08-14T04:51:10.168Z,21.55
2022-08-14T04:53:44.021Z,36.42
2022-08-14T04:56:31.682Z,15.60
2022-08-14T04:59:10.360Z,20.15
2022-08-14T05:01:49.036Z,12.80
2022-08-14T05:04:23.995Z,30.83
2022-08-14T05:06:55.284Z,38.88
2022-08-14T05:09:29.092Z,30.75
2022-08-14T05:13:10.494Z,43.63
2022-08-14T05:14:54.665Z,12.18
2022-08-14T05:17:32.240Z,24.35
2022-08-14T05:21:04.310Z,12.05
2022-08-14T05:23:03.644Z,11.65
2022-08-14T05:25:34.323Z,16.00
2022-08-14T05:28:21.744Z,13.32
2022-08-14T05:30:56.771Z,4.18
2022-08-14T05:33:27.671Z,15.77
2022-08-14T05:36:04.989Z,8.35
2022-08-14T05:38:38.179Z,16.02
2022-08-14T05:41:09.857Z,2.78
2022-08-14T05:43:42.234Z,17.85
2022-08-14T05:46:15.191Z,10.23
2022-08-14T05:48:45.359Z,4.72
2022-08-14T05:51:14.715Z,11.20
2022-08-14T05:53:44.281Z,13.68
2022-08-14T05:56:30.621Z,11.32
2022-08-14T05:59:00.609Z,12.75
2022-08-14T06:01:31.634Z,11.50
2022-08-14T06:04:01.033Z,7.28
2022-08-14T06:06:38.419Z,9.95
2022-08-14T06:09:10.326Z,5.55
2022-08-14T06:11:39.396Z,6.20
2022-08-14T06:14:12.490Z,6.47
2022-08-14T06:16:50.108Z,4.60
2022-08-14T06:19:23.367Z,8.73
2022-08-14T06:21:58.422Z,3.20
2022-08-14T06:24:30.695Z,6.72
2022-08-14T06:27:06.033Z,4.13
2022-08-14T06:29:39.620Z,4.28
2022-08-14T06:32:37.474Z,3.30
2022-08-14T06:35:04.126Z,3.38
2022-08-14T06:37:42.264Z,1.73
2022-08-14T06:40:25.400Z,1.70
2022-08-14T06:43:06.982Z,10.57
2022-08-14T06:45:38.693Z,2.78
2022-08-14T06:48:25.173Z,2.22
2022-08-14T06:50:55.327Z,1.85
2022-08-14T06:56:02.040Z,5.68
2022-08-14T06:58:32.423Z,3.72
2022-08-14T07:01:27.109Z,2.10
2022-08-14T07:04:22.636Z,5.13
2022-08-14T07:06:55.693Z,4.43
2022-08-14T07:09:40.587Z,1.88
2022-08-14T07:12:52.325Z,3.25
2022-08-14T07:15:07.692Z,2.42
2022-08-14T07:17:36.626Z,11.13
2022-08-14T07:20:07.596Z,5.47
2022-08-14T07:22:56.340Z,1.83
2022-08-14T07:25:32.169Z,6.57
2022-08-14T07:28:02.991Z,1.63
2022-08-14T07:30:34.497Z,1.63
2022-08-14T07:33:05.019Z,11.48
2022-08-14T07:35:37.378Z,5.30
2022-08-14T07:38:19.990Z,6.00
2022-08-14T07:40:53.104Z,4.88
2022-08-14T07:43:22.979Z,4.57
2022-08-14T07:45:54.052Z,2.30
2022-08-14T07:48:25.073Z,1.35
2022-08-14T07:51:03.253Z,1.67
2022-08-14T07:53:41.132Z,5.45
2022-08-14T07:56:21.790Z,2.22
2022-08-14T07:59:00.749Z,1.65
2022-08-14T08:01:32.214Z,2.20
2022-08-14T08:04:16.477Z,2.58
2022-08-14T08:06:47.549Z,2.60
2022-08-14T08:09:31.813Z,2.55
2022-08-14T08:12:04.807Z,4.95
2022-08-14T08:14:56.886Z,4.97
2022-08-14T08:17:26.557Z,4.10
2022-08-14T08:20:03.799Z,2.95
2022-08-14T08:22:32.781Z,1.67
2022-08-14T08:25:02.279Z,2.30
2022-08-14T08:27:30.943Z,2.83
2022-08-14T08:30:10.287Z,1.58
2022-08-14T08:32:47.082Z,1.90
2022-08-14T08:35:46.208Z,5.45
2022-08-14T08:39:17.102Z,2.78
2022-08-14T08:41:11.234Z,4.13
2022-08-14T08:43:45.871Z,1.67
2022-08-14T08:46:23.847Z,1.85
2022-08-14T08:51:33.211Z,3.47
2022-08-14T08:54:19.719Z,5.35
2022-08-14T08:56:52.047Z,2.03
2022-08-14T08:59:27.339Z,2.53
2022-08-14T09:02:04.170Z,2.40
2022-08-14T09:04:45.856Z,1.52
2022-08-14T09:07:28.235Z,2.88
2022-08-14T09:10:00.179Z,5.05
2022-08-14T09:12:32.491Z,2.80
2022-08-14T09:15:12.214Z,2.03
2022-08-14T09:17:45.158Z,2.28
2022-08-14T09:20:25.979Z,2.65
2022-08-14T09:22:59.754Z,1.50
2022-08-14T09:26:00.347Z,11.48
2022-08-14T09:28:19.548Z,16.70
2022-08-14T09:30:57.750Z,8.35
2022-08-14T09:33:55.916Z,10.20
2022-08-14T09:36:53.177Z,6.47
2022-08-14T09:39:31.419Z,7.72
2022-08-14T09:42:33.312Z,6.28
2022-08-14T09:45:16.813Z,4.53
2022-08-14T09:47:52.058Z,2.08
2022-08-14T09:50:35.103Z,2.97
2022-08-14T09:53:17.994Z,2.00
2022-08-14T09:55:59.961Z,1.50
2022-08-14T09:58:40.441Z,2.55
2022-08-14T10:01:17.371Z,3.58
2022-08-14T10:03:55.904Z,2.40
2022-08-14T10:06:31.052Z,4.25
2022-08-14T10:09:04.207Z,3.80
2022-08-14T10:11:43.296Z,3.53
2022-08-14T10:14:29.064Z,2.38
2022-08-14T10:17:08.361Z,1.95
2022-08-14T10:19:48.856Z,2.63
2022-08-14T10:23:12.914Z,1.73
2022-08-14T10:25:15.658Z,2.95
2022-08-14T10:27:48.875Z,2.33
2022-08-14T10:30:36.263Z,2.33
2022-08-14T10:33:05.374Z,3.20
2022-08-14T10:35:48.334Z,2.42
2022-08-14T10:38:35.059Z,4.28
2022-08-14T10:41:18.300Z,2.50
2022-08-14T10:44:08.692Z,3.00
2022-08-14T10:47:40.202Z,3.35
2022-08-14T10:49:53.317Z,2.50
2022-08-14T10:52:36.940Z,2.22
2022-08-14T10:55:14.623Z,2.38
2022-08-14T10:57:51.420Z,4.57
2022-08-14T11:00:30.106Z,2.17
2022-08-14T11:03:11.169Z,2.58
2022-08-14T11:05:43.373Z,2.03
2022-08-14T11:08:13.633Z,1.90
2022-08-14T11:10:55.852Z,1.88
2022-08-14T11:13:28.919Z,2.10
2022-08-14T11:16:04.178Z,3.00
2022-08-14T11:18:40.006Z,5.38
2022-08-14T11:21:10.511Z,4.70
2022-08-14T11:23:41.043Z,4.53
2022-08-14T11:26:13.830Z,7.72
2022-08-14T11:28:48.312Z,4.53
2022-08-14T11:31:22.498Z,12.35
2022-08-14T11:33:54.902Z,8.27
2022-08-14T11:36:35.083Z,3.30
2022-08-14T11:39:23.264Z,5.00
2022-08-14T11:42:57.018Z,2.10
2022-08-14T11:45:00.164Z,6.03
2022-08-14T11:47:35.438Z,2.58
2022-08-14T11:50:34.118Z,3.10
2022-08-14T11:53:08.786Z,2.75
2022-08-14T11:55:40.995Z,2.78
2022-08-14T11:58:15.719Z,4.03
2022-08-14T12:00:56.084Z,4.75
2022-08-14T12:03:52.424Z,5.55
2022-08-14T12:06:38.606Z,2.67
2022-08-14T12:09:15.235Z,7.82
2022-08-14T12:11:47.291Z,7.78
2022-08-14T12:14:30.276Z,22.55
2022-08-14T12:17:12.614Z,11.30
2022-08-14T12:19:56.467Z,21.30
2022-08-14T12:22:37.559Z,17.08
2022-08-14T12:25:14.294Z,4.30
2022-08-14T12:27:58.834Z,7.07
2022-08-14T12:30:43.990Z,5.20
2022-08-14T12:33:34.254Z,6.03
2022-08-14T12:36:06.561Z,6.90
2022-08-14T12:38:43.538Z,18.20
2022-08-14T12:41:20.684Z,13.38
2022-08-14T12:44:00.125Z,17.75
2022-08-14T12:46:29.130Z,8.80
2022-08-14T12:49:02.290Z,10.82
2022-08-14T12:51:31.777Z,23.70
2022-08-14T12:54:01.733Z,10.90
2022-08-14T12:56:34.144Z,20.42
2022-08-14T12:59:04.087Z,17.25
2022-08-14T13:02:01.940Z,15.55
2022-08-14T13:04:23.875Z,14.10
2022-08-14T13:06:54.145Z,19.70
2022-08-14T13:09:23.375Z,12.60
2022-08-14T13:11:58.611Z,11.52
2022-08-14T13:14:49.357Z,9.77
2022-08-14T13:17:18.938Z,6.40
2022-08-14T13:19:48.373Z,10.90
2022-08-14T13:22:31.953Z,3.28
2022-08-14T13:25:05.852Z,12.70
2022-08-14T13:27:39.261Z,5.68
2022-08-14T13:30:14.516Z,3.40
2022-08-14T13:32:52.972Z,37.67
2022-08-14T13:35:22.435Z,12.32
2022-08-14T13:37:54.013Z,16.80
2022-08-14T13:40:26.421Z,33.38
2022-08-14T13:42:57.819Z,55.30
2022-08-14T13:45:59.376Z,57.40
2022-08-14T13:48:27.434Z,35.20
2022-08-14T13:51:04.801Z,34.60
2022-08-14T13:53:41.406Z,22.23
2022-08-14T13:56:30.889Z,30.33
2022-08-14T13:59:04.484Z,27.73
2022-08-14T14:01:43.016Z,30.75
2022-08-14T14:04:19.433Z,10.52
2022-08-14T14:06:53.311Z,7.95
2022-08-14T14:09:50.939Z,9.77
2022-08-14T14:12:37.792Z,13.27
2022-08-14T14:15:17.601Z,25.98
2022-08-14T14:17:48.860Z,25.20
2022-08-14T14:20:35.419Z,14.55
2022-08-14T14:23:09.502Z,5.07
2022-08-14T14:25:51.481Z,14.75
2022-08-14T14:28:32.566Z,9.60
2022-08-14T14:31:06.912Z,16.67
2022-08-14T14:33:46.813Z,13.30
2022-08-14T14:36:21.704Z,5.05
2022-08-14T14:39:04.736Z,8.82
2022-08-14T14:41:37.951Z,3.72
2022-08-14T14:44:16.582Z,4.65
2022-08-14T14:46:53.267Z,2.67
2022-08-14T14:49:31.853Z,4.28
2022-08-14T14:52:20.785Z,3.75
2022-08-14T14:54:52.314Z,5.78
2022-08-14T14:57:20.734Z,4.75
2022-08-14T14:59:50.207Z,4.22
2022-08-14T15:02:32.569Z,3.30
2022-08-14T15:05:01.807Z,2.78
2022-08-14T15:07:31.799Z,6.40
2022-08-14T15:10:01.696Z,8.63
2022-08-14T15:12:55.139Z,3.17
2022-08-14T15:15:21.282Z,4.15
2022-08-14T15:17:54.827Z,6.47
2022-08-14T15:20:30.257Z,3.28
2022-08-14T15:23:12.204Z,4.32
2022-08-14T15:25:42.969Z,3.63
2022-08-14T15:28:21.197Z,3.13
2022-08-14T15:30:58.949Z,2.13
2022-08-14T15:34:13.379Z,4.78
2022-08-14T15:36:37.346Z,2.33
2022-08-14T15:39:07.968Z,2.80
2022-08-14T15:41:41.937Z,2.40
2022-08-14T15:44:24.659Z,2.85
2022-08-14T15:46:55.030Z,2.40
2022-08-14T15:49:25.723Z,2.97
2022-08-14T15:52:02.070Z,2.90
2022-08-14T15:54:32.258Z,2.38
2022-08-14T15:57:03.650Z,2.75
2022-08-14T15:59:53.939Z,3.35
2022-08-14T16:02:24.442Z,2.28
2022-08-14T16:04:56.613Z,2.00
2022-08-14T16:07:27.016Z,2.58
2022-08-14T16:10:27.799Z,2.88
2022-08-14T16:12:47.502Z,2.25
2022-08-14T16:15:17.720Z,4.35
2022-08-14T16:17:48.046Z,2.00
2022-08-14T16:20:40.908Z,1.52
2022-08-14T16:23:11.526Z,4.13
2022-08-14T16:25:43.966Z,3.25
2022-08-14T16:28:27.382Z,3.78
2022-08-14T16:30:56.773Z,1.88
2022-08-14T16:33:28.057Z,2.42
2022-08-14T16:36:31.389Z,1.83
2022-08-14T16:39:03.125Z,7.60
2022-08-14T16:41:32.272Z,2.17
2022-08-14T16:44:13.786Z,2.13
2022-08-14T16:46:55.318Z,1.65
2022-08-14T16:50:03.211Z,1.95
2022-08-14T16:52:25.686Z,2.13
2022-08-14T16:55:11.602Z,3.47
2022-08-14T16:57:58.512Z,1.38
2022-08-14T17:00:43.905Z,9.13
2022-08-14T17:03:14.753Z,3.03
2022-08-14T17:05:46.894Z,5.57
2022-08-14T17:08:33.396Z,1.38
2022-08-14T17:11:12.961Z,5.50
2022-08-14T17:13:58.677Z,1.08
2022-08-14T17:16:39.681Z,6.07
2022-08-14T17:19:09.970Z,1.35
2022-08-14T17:21:47.090Z,2.20
2022-08-14T17:24:57.803Z,1.90
2022-08-14T17:27:11.169Z,3.28
2022-08-14T17:29:56.271Z,1.80
2022-08-14T17:32:29.890Z,2.45
2022-08-14T17:35:16.525Z,3.60
2022-08-14T17:37:55.788Z,5.80
2022-08-14T17:40:31.677Z,4.32
2022-08-14T17:43:02.721Z,4.90
2022-08-14T17:45:42.799Z,5.43
2022-08-14T17:49:16.054Z,3.03
2022-08-14T17:51:23.788Z,2.78
2022-08-14T17:54:03.734Z,4.10
2022-08-14T17:56:38.832Z,1.00
2022-08-14T17:59:07.907Z,1.17
2022-08-14T18:01:39.237Z,1.38
2022-08-14T18:04:25.126Z,2.08
2022-08-14T18:07:16.375Z,3.65
2022-08-14T18:09:56.931Z,1.70
2022-08-14T18:12:37.028Z,5.30
2022-08-14T18:15:06.768Z,1.85
2022-08-14T18:17:53.122Z,1.58
2022-08-14T18:21:39.650Z,1.98
2022-08-14T18:23:15.868Z,4.03
2022-08-14T18:25:53.244Z,1.70
2022-08-14T18:28:51.395Z,1.00
2022-08-14T18:31:24.829Z,1.67
2022-08-14T18:34:31.888Z,1.02
2022-08-14T18:37:17.584Z,6.22
2022-08-14T18:40:02.756Z,1.33
2022-08-14T18:42:44.240Z,4.53
2022-08-14T18:45:29.091Z,1.70
2022-08-14T18:48:50.552Z,2.95
2022-08-14T18:51:45.399Z,3.88
2022-08-14T18:54:33.247Z,1.23
2022-08-14T18:57:05.550Z,1.27
2022-08-14T18:59:42.370Z,1.55
2022-08-14T19:02:31.246Z,1.40
2022-08-14T19:05:03.072Z,2.50
2022-08-14T19:07:34.120Z,0.90
2022-08-14T19:10:17.093Z,1.08
2022-08-14T19:12:55.089Z,1.63
2022-08-14T19:15:45.558Z,0.60
2022-08-14T19:18:38.156Z,0.73
2022-08-14T19:21:24.062Z,0.70
2022-08-14T19:24:29.447Z,2.28
2022-08-14T19:27:23.675Z,4.53
2022-08-14T19:30:20.372Z,0.60
2022-08-14T19:32:56.031Z,1.17
2022-08-14T19:35:43.620Z,1.00
2022-08-14T19:38:53.117Z,1.60
2022-08-14T19:41:34.329Z,1.90
2022-08-14T19:44:31.642Z,3.90
2022-08-14T19:47:06.084Z,0.95
2022-08-14T19:50:07.458Z,1.52
2022-08-14T19:52:39.987Z,3.83
2022-08-14T19:55:19.653Z,1.58
2022-08-14T19:57:52.036Z,0.47
2022-08-14T20:00:29.993Z,2.20
2022-08-14T20:03:14.250Z,2.00
2022-08-14T20:05:49.113Z,1.10
2022-08-14T20:09:05.179Z,3.70
2022-08-14T20:12:00.609Z,1.42
2022-08-14T20:14:23.034Z,1.95
2022-08-14T20:17:06.698Z,1.00
2022-08-14T20:19:41.549Z,0.60
2022-08-14T20:22:36.513Z,1.75
2022-08-14T20:25:15.230Z,2.55
2022-08-14T20:27:46.094Z,1.77
2022-08-14T20:30:33.663Z,2.55
2022-08-14T20:33:11.000Z,0.60
2022-08-14T20:35:50.404Z,0.93
2022-08-14T20:38:30.501Z,4.20
2022-08-14T20:41:06.649Z,2.00
2022-08-14T20:43:57.084Z,1.52
2022-08-14T20:46:31.413Z,2.42
2022-08-14T20:49:06.237Z,0.70
2022-08-14T20:51:47.508Z,2.97
2022-08-14T20:54:33.372Z,0.70
2022-08-14T20:57:13.920Z,2.45
2022-08-14T20:59:57.415Z,1.88
2022-08-14T21:02:50.465Z,2.88
2022-08-14T21:05:33.777Z,5.70
2022-08-14T21:08:08.471Z,0.70
2022-08-14T21:10:56.659Z,0.70
2022-08-14T21:14:19.597Z,0.85
2022-08-14T21:16:34.788Z,2.47
2022-08-14T21:19:06.586Z,1.77
2022-08-14T21:21:41.231Z,0.63
2022-08-14T21:24:39.877Z,2.50
2022-08-14T21:27:12.629Z,0.82
2022-08-14T21:29:54.250Z,1.63
2022-08-14T21:32:47.136Z,0.82
2022-08-14T21:35:20.887Z,1.27
2022-08-14T21:37:53.979Z,1.05
2022-08-14T21:40:41.045Z,3.22
2022-08-14T21:43:18.133Z,3.63
2022-08-14T21:45:55.875Z,1.92
2022-08-14T21:48:34.026Z,1.15
2022-08-14T21:51:56.150Z,1.38
2022-08-14T21:54:01.315Z,1.23
2022-08-14T21:56:38.974Z,1.23
2022-08-14T21:59:17.554Z,3.85
2022-08-14T22:02:00.257Z,0.93
2022-08-14T22:04:34.874Z,1.00
2022-08-14T22:07:12.506Z,1.30
2022-08-14T22:09:55.009Z,1.08
2022-08-14T22:12:47.305Z,0.80
2022-08-14T22:15:17.735Z,1.77
2022-08-14T22:17:52.372Z,0.73
2022-08-14T22:20:26.904Z,1.15
2022-08-14T22:22:56.614Z,0.88
2022-08-14T22:25:33.984Z,7.15
2022-08-14T22:28:06.970Z,2.30
2022-08-14T22:30:39.483Z,1.05
2022-08-14T22:33:13.585Z,0.63
2022-08-14T22:35:42.908Z,1.58
2022-08-14T22:38:35.295Z,1.67
2022-08-14T22:41:21.191Z,1.02
2022-08-14T22:43:52.741Z,1.30
2022-08-14T22:46:22.394Z,4.20
2022-08-14T22:48:53.555Z,1.13
2022-08-14T22:51:25.158Z,1.70
2022-08-14T22:53:58.301Z,2.45
2022-08-14T22:56:30.390Z,1.40
2022-08-14T23:01:46.169Z,0.90
2022-08-14T23:04:35.545Z,1.50
2022-08-14T23:07:23.147Z,1.80
2022-08-14T23:10:34.016Z,2.60
2022-08-14T23:12:54.376Z,2.22
2022-08-14T23:15:29.843Z,2.22
2022-08-14T23:18:00.084Z,1.20
2022-08-14T23:20:36.174Z,4.15
2022-08-14T23:23:22.955Z,1.25
2022-08-14T23:25:59.512Z,2.08
2022-08-14T23:28:34.127Z,2.33
2022-08-14T23:31:34.786Z,2.35
2022-08-14T23:34:09.996Z,2.25
2022-08-14T23:36:53.281Z,2.05
2022-08-14T23:39:29.976Z,3.85
2022-08-14T23:42:04.281Z,2.67
2022-08-14T23:44:36.057Z,1.30
2022-08-14T23:47:12.158Z,2.63
2022-08-14T23:50:04.138Z,4.78
2022-08-14T23:53:07.271Z,2.05
2022-08-14T23:55:31.752Z,9.13
2022-08-14T23:58:01.747Z,2.63
